createdAt,value
2023-04-20T00:00:11.553Z,99446.72
2023-04-20T00:02:43.072Z,99437.63
2023-04-20T00:05:13.009Z,99430.88
2023-04-20T00:07:41.877Z,99426.69
2023-04-20T00:10:11.603Z,99433.50
2023-04-20T00:12:42.892Z,99424.22
2023-04-20T00:15:12.238Z,99424.31
2023-04-20T00:17:41.039Z,99418.41
2023-04-20T00:20:11.016Z,99415.97
2023-04-20T00:22:39.709Z,99411.75
2023-04-20T00:25:09.705Z,99409.44
2023-04-20T00:27:38.329Z,99406.06
2023-04-20T00:30:12.659Z,99407.06
2023-04-20T00:32:41.382Z,99395.41
2023-04-20T00:35:11.134Z,99395.59
2023-04-20T00:37:39.964Z,99392.31
2023-04-20T00:40:10.331Z,99386.59
2023-04-20T00:42:40.722Z,99381.66
2023-04-20T00:45:11.746Z,99388.59
2023-04-20T00:47:40.653Z,99385.28
2023-04-20T00:50:11.027Z,99385.47
2023-04-20T00:52:41.566Z,99374.56
2023-04-20T00:55:11.196Z,99383.22
2023-04-20T00:57:40.401Z,99372.28
2023-04-20T01:00:12.214Z,99368.91
2023-04-20T01:02:41.880Z,99374.19
2023-04-20T01:05:11.111Z,99364.91
2023-04-20T01:07:40.015Z,99360.72
2023-04-20T01:10:10.610Z,99353.97
2023-04-20T01:12:42.241Z,99357.47
2023-04-20T01:15:15.054Z,99352.50
2023-04-20T01:17:44.073Z,99349.34
2023-04-20T01:20:14.641Z,99344.59
2023-04-20T01:22:50.168Z,99344.69
2023-04-20T01:25:43.611Z,99334.69
2023-04-20T01:28:14.510Z,99336.41
2023-04-20T01:30:43.867Z,99334.78
2023-04-20T01:33:12.549Z,99333.03
2023-04-20T01:35:44.140Z,99327.94
2023-04-20T01:38:19.681Z,99326.28
2023-04-20T01:40:48.533Z,99322.09
2023-04-20T01:43:18.202Z,99326.47
2023-04-20T01:45:46.860Z,99319.03
2023-04-20T01:48:15.875Z,99313.09
2023-04-20T01:50:44.590Z,99313.28
2023-04-20T01:53:15.127Z,99316.00
2023-04-20T01:55:43.818Z,99310.28
2023-04-20T01:58:12.434Z,99306.44
2023-04-20T02:00:41.191Z,99309.88
2023-04-20T02:03:10.314Z,99300.59
2023-04-20T02:05:39.212Z,99300.59
2023-04-20T02:08:07.903Z,99299.06
2023-04-20T02:10:37.948Z,99306.69
2023-04-20T02:13:06.627Z,99304.25
2023-04-20T02:15:35.347Z,99295.88
2023-04-20T02:18:04.372Z,99297.69
2023-04-20T02:20:33.065Z,99290.94
2023-04-20T02:23:01.679Z,99303.69
2023-04-20T02:25:30.607Z,99297.88
2023-04-20T02:28:00.910Z,99297.03
2023-04-20T02:30:29.608Z,99304.75
2023-04-20T02:32:58.436Z,99298.19
2023-04-20T02:35:27.453Z,99288.19
2023-04-20T02:37:56.100Z,99294.19
2023-04-20T02:40:24.908Z,99293.47
2023-04-20T02:42:54.269Z,99298.56
2023-04-20T02:45:24.258Z,99291.91
2023-04-20T02:47:52.991Z,99298.75
2023-04-20T02:50:22.126Z,99288.56
2023-04-20T02:53:03.026Z,99291.13
2023-04-20T02:55:35.389Z,99285.28
2023-04-20T02:58:10.538Z,99281.00
2023-04-20T03:01:02.948Z,99275.84
2023-04-20T03:03:33.062Z,99264.66
2023-04-20T03:06:02.324Z,99262.03
2023-04-20T03:08:31.303Z,99258.56
2023-04-20T03:11:06.057Z,99253.38
2023-04-20T03:13:36.247Z,99249.22
2023-04-20T03:16:08.067Z,99242.47
2023-04-20T03:18:41.721Z,99249.31
2023-04-20T03:21:10.647Z,99244.13
2023-04-20T03:23:39.348Z,99241.59
2023-04-20T03:26:09.458Z,99240.66
2023-04-20T03:29:07.296Z,99240.66
2023-04-20T03:31:38.113Z,99238.94
2023-04-20T03:34:08.211Z,99236.41
2023-04-20T03:36:37.162Z,99235.66
2023-04-20T03:39:06.064Z,99238.28
2023-04-20T03:41:34.754Z,99234.09
2023-04-20T03:44:03.537Z,99232.50
2023-04-20T03:46:32.263Z,99227.50
2023-04-20T03:49:02.586Z,99235.13
2023-04-20T03:51:31.273Z,99220.75
2023-04-20T03:54:00.904Z,99226.00
2023-04-20T03:56:30.638Z,99220.09
2023-04-20T03:58:59.963Z,99219.28
2023-04-20T04:01:29.706Z,99217.66
2023-04-20T04:03:59.568Z,99220.19
2023-04-20T04:06:29.979Z,99213.56
2023-04-20T04:08:58.629Z,99207.66
2023-04-20T04:11:30.096Z,99216.19
2023-04-20T04:14:00.495Z,99224.53
2023-04-20T04:16:30.764Z,99214.31
2023-04-20T04:18:59.617Z,99206.56
2023-04-20T04:21:29.898Z,99218.47
2023-04-20T04:24:04.981Z,99216.66
2023-04-20T04:26:52.982Z,99215.75
2023-04-20T04:29:22.222Z,99219.09
2023-04-20T04:31:51.044Z,99218.22
2023-04-20T04:34:20.480Z,99214.75
2023-04-20T04:36:54.956Z,99217.31
2023-04-20T04:39:40.480Z,99218.91
2023-04-20T04:42:16.695Z,99222.41
2023-04-20T04:44:45.627Z,99217.31
2023-04-20T04:47:19.981Z,99217.31
2023-04-20T04:49:48.709Z,99214.75
2023-04-20T04:52:18.858Z,99212.22
2023-04-20T04:54:47.483Z,99217.22
2023-04-20T04:57:16.187Z,99211.19
2023-04-20T04:59:44.911Z,99209.41
2023-04-20T05:02:13.682Z,99210.94
2023-04-20T05:04:42.406Z,99221.84
2023-04-20T05:07:11.560Z,99204.78
2023-04-20T05:09:41.778Z,99214.75
2023-04-20T05:12:10.492Z,99211.31
2023-04-20T05:14:39.099Z,99211.31
2023-04-20T05:17:07.786Z,99208.69
2023-04-20T05:19:36.462Z,99212.78
2023-04-20T05:22:05.507Z,99205.94
2023-04-20T05:24:34.121Z,99205.84
2023-04-20T05:27:04.746Z,99206.69
2023-04-20T05:29:33.620Z,99202.50
2023-04-20T05:32:02.445Z,99209.16
2023-04-20T05:34:31.280Z,99210.78
2023-04-20T05:37:00.819Z,99203.94
2023-04-20T05:39:29.446Z,99205.50
2023-04-20T05:41:58.184Z,99206.22
2023-04-20T05:44:28.362Z,99203.59
2023-04-20T05:46:57.018Z,99204.22
2023-04-20T05:49:26.212Z,99201.69
2023-04-20T05:51:54.875Z,99207.50
2023-04-20T05:54:23.498Z,99206.59
2023-04-20T05:56:52.105Z,99210.69
2023-04-20T05:59:20.761Z,99200.44
2023-04-20T06:01:51.197Z,99201.94
2023-04-20T06:04:20.145Z,99203.50
2023-04-20T06:06:51.185Z,99201.78
2023-04-20T06:09:19.933Z,99210.13
2023-04-20T06:11:48.727Z,99222.72
2023-04-20T06:14:17.852Z,99220.06
2023-04-20T06:16:46.480Z,99224.97
2023-04-20T06:19:16.707Z,99229.16
2023-04-20T06:21:45.586Z,99222.41
2023-04-20T06:24:14.281Z,99227.50
2023-04-20T06:26:42.877Z,99220.97
2023-04-20T06:29:11.920Z,99213.44
2023-04-20T06:31:40.623Z,99217.69
2023-04-20T06:34:09.254Z,99211.78
2023-04-20T06:36:39.231Z,99208.53
2023-04-20T06:39:07.845Z,99205.31
2023-04-20T06:41:36.686Z,99206.13
2023-04-20T06:44:08.513Z,99197.78
2023-04-20T06:46:37.453Z,99202.13
2023-04-20T06:49:06.254Z,99197.88
2023-04-20T06:51:34.993Z,99192.78
2023-04-20T06:54:05.600Z,99196.84
2023-04-20T06:56:35.598Z,99196.78
2023-04-20T06:59:04.566Z,99199.13
2023-04-20T07:01:33.255Z,99200.78
2023-04-20T07:04:02.040Z,99199.69
2023-04-20T07:06:30.810Z,99205.50
2023-04-20T07:08:59.451Z,99201.03
2023-04-20T07:11:29.557Z,99202.50
2023-04-20T07:13:58.247Z,99198.75
2023-04-20T07:16:26.956Z,99196.56
2023-04-20T07:18:55.854Z,99195.34
2023-04-20T07:21:24.531Z,99189.06
2023-04-20T07:23:53.916Z,99193.06
2023-04-20T07:26:23.119Z,99182.69
2023-04-20T07:28:53.778Z,99183.22
2023-04-20T07:31:22.428Z,99182.94
2023-04-20T07:33:51.173Z,99178.47
2023-04-20T07:36:19.900Z,99181.56
2023-04-20T07:38:48.990Z,99173.63
2023-04-20T07:41:18.032Z,99172.63
2023-04-20T07:43:46.651Z,99167.31
2023-04-20T07:46:24.468Z,99163.47
2023-04-20T07:48:53.182Z,99170.00
2023-04-20T07:51:21.796Z,99164.53
2023-04-20T07:53:50.463Z,99165.06
2023-04-20T07:56:19.120Z,99171.50
2023-04-20T07:58:47.791Z,99168.63
2023-04-20T08:01:16.388Z,99169.16
2023-04-20T08:03:46.777Z,99169.69
2023-04-20T08:06:15.617Z,99163.34
2023-04-20T08:08:44.341Z,99160.50
2023-04-20T08:11:13.356Z,99161.00
2023-04-20T08:13:43.019Z,99149.69
2023-04-20T08:16:11.811Z,99150.22
2023-04-20T08:18:40.540Z,99157.66
2023-04-20T08:21:10.648Z,99150.72
2023-04-20T08:23:39.321Z,99153.97
2023-04-20T08:26:08.211Z,99152.16
2023-04-20T08:28:36.908Z,99162.25
2023-04-20T08:31:05.660Z,99156.34
2023-04-20T08:33:34.289Z,99158.78
2023-04-20T08:36:02.920Z,99157.25
2023-04-20T08:38:34.401Z,99155.50
2023-04-20T08:41:03.595Z,99155.50
2023-04-20T08:43:33.112Z,99148.69
2023-04-20T08:46:03.021Z,99136.63
2023-04-20T08:48:37.002Z,99126.19
2023-04-20T08:51:07.221Z,99126.81
2023-04-20T08:53:37.201Z,99131.53
2023-04-20T08:56:06.406Z,99125.19
2023-04-20T08:58:35.101Z,99129.97
2023-04-20T09:01:03.766Z,99112.50
2023-04-20T09:03:36.371Z,99119.56
2023-04-20T09:06:06.552Z,99123.31
2023-04-20T09:08:41.994Z,99121.25
2023-04-20T09:11:23.080Z,99112.13
2023-04-20T09:14:02.842Z,99115.81
2023-04-20T09:16:32.131Z,99118.84
2023-04-20T09:19:00.826Z,99117.09
2023-04-20T09:21:31.428Z,99117.09
2023-04-20T09:24:07.506Z,99112.91
2023-04-20T09:26:38.098Z,99106.28
2023-04-20T09:29:18.170Z,99107.22
2023-04-20T09:31:47.048Z,99102.31
2023-04-20T09:34:16.373Z,99092.41
2023-04-20T09:36:47.158Z,99090.09
2023-04-20T09:39:19.766Z,99094.47
2023-04-20T09:41:49.934Z,99094.56
2023-04-20T09:44:20.093Z,99096.41
2023-04-20T09:46:49.182Z,99084.84
2023-04-20T09:49:17.752Z,99077.75
2023-04-20T09:51:46.556Z,99075.72
2023-04-20T09:54:17.924Z,99073.91
2023-04-20T09:56:47.900Z,99069.06
2023-04-20T09:59:20.445Z,99067.44
2023-04-20T10:01:49.665Z,99077.88
2023-04-20T10:04:18.596Z,99066.56
2023-04-20T10:06:55.336Z,99075.50
2023-04-20T10:09:27.134Z,99074.41
2023-04-20T10:12:07.565Z,99072.28
2023-04-20T10:14:36.766Z,99069.97
2023-04-20T10:17:08.833Z,99057.19
2023-04-20T10:19:42.388Z,99069.16
2023-04-20T10:22:13.142Z,99064.84
2023-04-20T10:24:43.406Z,99069.97
2023-04-20T10:27:22.109Z,99053.09
2023-04-20T10:29:51.137Z,99049.84
2023-04-20T10:32:25.203Z,99059.34
2023-04-20T10:35:05.237Z,99052.59
2023-04-20T10:37:34.123Z,99064.69
2023-04-20T10:40:07.736Z,99051.81
2023-04-20T10:42:44.457Z,99048.09
2023-04-20T10:45:14.129Z,99044.50
2023-04-20T10:47:44.334Z,99047.56
2023-04-20T10:50:15.605Z,99038.25
2023-04-20T10:52:45.454Z,99032.22
2023-04-20T10:55:24.418Z,99030.59
2023-04-20T10:57:53.969Z,99031.50
2023-04-20T11:00:25.693Z,99045.94
2023-04-20T11:02:56.444Z,99032.34
2023-04-20T11:05:28.496Z,99041.22
2023-04-20T11:07:58.972Z,99043.31
2023-04-20T11:10:41.190Z,99029.22
2023-04-20T11:13:22.390Z,99028.75
2023-04-20T11:15:51.085Z,99028.94
2023-04-20T11:18:20.100Z,99030.69
2023-04-20T11:20:53.233Z,99024.19
2023-04-20T11:23:22.905Z,99014.19
2023-04-20T11:25:55.666Z,99023.69
2023-04-20T11:28:30.452Z,99018.69
2023-04-20T11:30:59.241Z,99018.06
2023-04-20T11:33:29.355Z,99018.78
2023-04-20T11:35:59.951Z,99004.16
2023-04-20T11:38:31.061Z,98988.53
2023-04-20T11:41:04.732Z,98990.06
2023-04-20T11:43:33.851Z,98985.44
2023-04-20T11:46:03.380Z,98982.66
2023-04-20T11:48:32.661Z,98981.50
2023-04-20T11:51:01.499Z,98983.03
2023-04-20T11:53:30.114Z,98997.53
2023-04-20T11:56:00.113Z,98991.72
2023-04-20T11:58:28.698Z,98991.13
2023-04-20T12:00:57.335Z,98997.25
2023-04-20T12:03:26.544Z,99006.78
2023-04-20T12:05:55.494Z,99011.41
2023-04-20T12:08:25.138Z,99004.78
2023-04-20T12:10:53.785Z,99002.09
2023-04-20T12:13:23.886Z,98994.22
2023-04-20T12:15:52.519Z,98995.66
2023-04-20T12:18:21.386Z,98992.03
2023-04-20T12:20:50.324Z,98998.56
2023-04-20T12:23:18.913Z,99000.06
2023-04-20T12:25:47.486Z,99007.56
2023-04-20T12:28:16.299Z,98997.34
2023-04-20T12:30:46.407Z,99003.25
2023-04-20T12:33:15.103Z,99001.94
2023-04-20T12:35:45.036Z,98999.63
2023-04-20T12:38:14.763Z,99001.44
2023-04-20T12:40:43.814Z,98996.56
2023-04-20T12:43:13.883Z,98988.19
2023-04-20T12:45:42.542Z,98994.94
2023-04-20T12:48:12.613Z,98993.28
2023-04-20T12:50:41.402Z,98992.59
2023-04-20T12:53:10.031Z,98995.34
2023-04-20T12:55:38.667Z,98991.38
2023-04-20T12:58:07.339Z,98994.78
2023-04-20T13:00:36.112Z,98997.34
2023-04-20T13:03:05.246Z,98995.59
2023-04-20T13:05:35.474Z,98995.47
2023-04-20T13:08:04.973Z,99006.53
2023-04-20T13:10:33.651Z,99014.19
2023-04-20T13:13:02.351Z,99013.47
2023-04-20T13:15:39.004Z,99014.59
2023-04-20T13:18:14.516Z,99019.94
2023-04-20T13:20:44.917Z,99023.41
2023-04-20T13:23:15.424Z,99026.06
2023-04-20T13:25:44.831Z,99012.50
2023-04-20T13:28:14.854Z,99050.84
2023-04-20T13:30:46.240Z,99030.53
2023-04-20T13:33:15.285Z,99009.53
2023-04-20T13:35:46.177Z,99008.50
2023-04-20T13:38:15.127Z,99016.97
2023-04-20T13:40:45.336Z,99008.50
2023-04-20T13:43:14.287Z,99011.75
2023-04-20T13:45:43.188Z,99001.53
2023-04-20T13:48:11.850Z,99000.63
2023-04-20T13:50:40.490Z,99006.56
2023-04-20T13:53:10.506Z,99000.63
2023-04-20T13:55:39.203Z,98996.41
2023-04-20T13:58:07.807Z,98998.28
2023-04-20T14:00:36.429Z,99004.53
2023-04-20T14:03:06.272Z,98995.34
2023-04-20T14:05:35.079Z,98997.78
2023-04-20T14:08:04.012Z,98986.44
2023-04-20T14:10:34.610Z,98979.56
2023-04-20T14:13:03.320Z,98987.00
2023-04-20T14:15:32.130Z,98978.47
2023-04-20T14:18:01.302Z,98980.91
2023-04-20T14:20:29.939Z,98977.44
2023-04-20T14:22:58.566Z,98971.41
2023-04-20T14:25:27.147Z,98978.84
2023-04-20T14:27:57.218Z,98978.84
2023-04-20T14:30:26.441Z,98980.47
2023-04-20T14:32:56.949Z,98980.38
2023-04-20T14:35:27.149Z,98983.72
2023-04-20T14:37:55.951Z,98981.28
2023-04-20T14:40:24.792Z,98983.72
2023-04-20T14:42:53.468Z,98991.31
2023-04-20T14:45:23.767Z,98986.09
2023-04-20T14:47:55.240Z,98984.34
2023-04-20T14:50:27.382Z,98980.13
2023-04-20T14:52:57.045Z,98987.00
2023-04-20T14:55:26.614Z,98987.00
2023-04-20T14:57:58.160Z,98976.78
2023-04-20T15:00:29.313Z,98968.09
2023-04-20T15:02:59.788Z,98976.44
2023-04-20T15:05:29.466Z,98982.28
2023-04-20T15:07:58.943Z,98977.16
2023-04-20T15:10:27.899Z,98974.50
2023-04-20T15:12:56.618Z,98975.41
2023-04-20T15:15:34.564Z,98969.59
2023-04-20T15:18:11.500Z,98962.06
2023-04-20T15:20:40.185Z,98956.34
2023-04-20T15:23:08.782Z,98968.31
2023-04-20T15:25:37.408Z,98959.13
2023-04-20T15:28:06.925Z,98965.97
2023-04-20T15:30:35.646Z,98981.16
2023-04-20T15:33:05.599Z,98977.94
2023-04-20T15:35:36.799Z,98972.94
2023-04-20T15:38:05.442Z,98969.53
2023-04-20T15:40:34.101Z,98970.50
2023-04-20T15:43:03.644Z,98965.38
2023-04-20T15:45:32.410Z,98979.06
2023-04-20T15:48:01.139Z,98980.91
2023-04-20T15:50:30.093Z,98975.78
2023-04-20T15:53:00.083Z,98978.47
2023-04-20T15:55:29.100Z,98981.31
2023-04-20T15:58:00.377Z,98988.25
2023-04-20T16:00:29.078Z,98977.34
2023-04-20T16:02:58.728Z,98997.16
2023-04-20T16:05:27.904Z,99003.19
2023-04-20T16:07:56.764Z,99004.03
2023-04-20T16:10:27.969Z,99001.25
2023-04-20T16:12:56.995Z,99013.78
2023-04-20T16:15:25.890Z,99007.66
2023-04-20T16:17:55.034Z,99010.94
2023-04-20T16:20:23.884Z,99009.94
2023-04-20T16:22:52.584Z,98991.13
2023-04-20T16:25:24.197Z,98989.41
2023-04-20T16:27:54.530Z,98987.66
2023-04-20T16:30:23.417Z,98982.53
2023-04-20T16:32:52.091Z,98989.41
2023-04-20T16:35:20.902Z,98993.56
2023-04-20T16:37:49.558Z,98987.66
2023-04-20T16:40:20.906Z,98986.72
2023-04-20T16:42:49.657Z,98990.94
2023-04-20T16:45:19.812Z,98988.44
2023-04-20T16:47:48.967Z,98993.56
2023-04-20T16:50:19.733Z,98991.84
2023-04-20T16:52:48.901Z,98990.19
2023-04-20T16:55:17.908Z,99003.78
2023-04-20T16:57:46.508Z,99002.97
2023-04-20T17:00:16.875Z,99004.84
2023-04-20T17:02:46.953Z,99010.31
2023-04-20T17:05:15.659Z,98991.94
2023-04-20T17:07:44.310Z,99003.31
2023-04-20T17:10:13.292Z,99003.41
2023-04-20T17:12:42.139Z,99011.19
2023-04-20T17:15:12.224Z,99000.97
2023-04-20T17:17:40.914Z,99008.84
2023-04-20T17:20:12.364Z,99012.31
2023-04-20T17:22:41.120Z,99013.25
2023-04-20T17:25:11.018Z,99002.31
2023-04-20T17:27:39.678Z,99004.88
2023-04-20T17:30:09.987Z,99012.72
2023-04-20T17:32:38.662Z,99011.19
2023-04-20T17:35:08.210Z,99019.69
2023-04-20T17:37:38.709Z,99024.81
2023-04-20T17:40:09.490Z,99032.47
2023-04-20T17:42:38.163Z,99034.91
2023-04-20T17:45:08.511Z,99034.78
2023-04-20T17:47:37.274Z,99040.75
2023-04-20T17:50:07.445Z,99050.84
2023-04-20T17:52:36.213Z,99059.41
2023-04-20T17:55:08.633Z,99051.03
2023-04-20T17:57:37.329Z,99050.34
2023-04-20T18:00:08.785Z,99052.78
2023-04-20T18:02:41.413Z,99046.88
2023-04-20T18:05:11.163Z,99048.47
2023-04-20T18:07:39.769Z,99049.31
2023-04-20T18:10:15.776Z,99062.19
2023-04-20T18:12:45.010Z,99053.81
2023-04-20T18:15:13.977Z,99054.72
2023-04-20T18:17:44.340Z,99046.34
2023-04-20T18:20:13.551Z,99061.78
2023-04-20T18:22:42.337Z,99069.44
2023-04-20T18:25:12.645Z,99065.34
2023-04-20T18:27:41.327Z,99061.91
2023-04-20T18:30:11.603Z,99060.25
2023-04-20T18:32:40.346Z,99061.06
2023-04-20T18:35:11.015Z,99081.38
2023-04-20T18:37:39.860Z,99068.59
2023-04-20T18:40:13.076Z,99054.94
2023-04-20T18:42:43.371Z,99058.41
2023-04-20T18:45:13.268Z,99061.78
2023-04-20T18:47:43.143Z,99071.06
2023-04-20T18:50:12.956Z,99066.78
2023-04-20T18:52:41.769Z,99061.69
2023-04-20T18:55:12.084Z,99074.44
2023-04-20T18:57:41.185Z,99084.66
2023-04-20T19:00:13.245Z,99080.47
2023-04-20T19:02:42.115Z,99082.22
2023-04-20T19:05:11.036Z,99087.41
2023-04-20T19:07:39.968Z,99096.78
2023-04-20T19:10:11.720Z,99095.16
2023-04-20T19:12:40.625Z,99096.91
2023-04-20T19:15:10.726Z,99095.16
2023-04-20T19:17:39.436Z,99099.34
2023-04-20T19:20:10.268Z,99106.22
2023-04-20T19:22:38.925Z,99099.34
2023-04-20T19:25:09.083Z,99092.59
2023-04-20T19:27:39.131Z,99087.59
2023-04-20T19:30:10.009Z,99086.00
2023-04-20T19:32:38.629Z,99094.56
2023-04-20T19:35:07.742Z,99092.94
2023-04-20T19:37:36.412Z,99089.56
2023-04-20T19:40:06.287Z,99083.84
2023-04-20T19:42:35.060Z,99088.16
2023-04-20T19:45:06.130Z,99088.03
2023-04-20T19:47:34.828Z,99098.13
2023-04-20T19:50:04.249Z,99094.75
2023-04-20T19:52:34.428Z,99094.75
2023-04-20T19:55:04.009Z,99094.75
2023-04-20T19:57:32.739Z,99091.50
2023-04-20T20:00:01.421Z,99088.16
2023-04-20T20:02:31.568Z,99084.75
2023-04-20T20:05:00.251Z,99081.41
2023-04-20T20:07:28.895Z,99083.94
2023-04-20T20:09:57.538Z,99087.31
2023-04-20T20:12:26.385Z,99094.75
2023-04-20T20:14:55.111Z,99084.53
2023-04-20T20:17:23.899Z,99088.72
2023-04-20T20:19:55.752Z,99094.56
2023-04-20T20:22:24.685Z,99086.00
2023-04-20T20:24:54.726Z,99092.72
2023-04-20T20:27:23.396Z,99076.59
2023-04-20T20:29:51.957Z,99046.75
2023-04-20T20:32:20.980Z,99064.63
2023-04-20T20:34:49.843Z,99078.22
2023-04-20T20:37:21.124Z,99088.44
2023-04-20T20:39:49.895Z,99094.34
2023-04-20T20:42:19.291Z,99092.53
2023-04-20T20:44:47.925Z,99096.78
2023-04-20T20:47:16.579Z,99096.00
2023-04-20T20:49:45.747Z,99101.09
2023-04-20T20:52:14.428Z,99096.78
2023-04-20T20:54:44.869Z,99099.25
2023-04-20T20:57:13.495Z,99101.78
2023-04-20T20:59:42.183Z,99097.53
2023-04-20T21:02:10.911Z,99080.47
2023-04-20T21:04:40.236Z,99085.56
2023-04-20T21:07:08.987Z,99072.81
2023-04-20T21:09:40.397Z,99063.38
2023-04-20T21:12:10.563Z,99047.38
2023-04-20T21:14:39.155Z,99061.91
2023-04-20T21:17:07.812Z,99086.69
2023-04-20T21:19:37.011Z,99079.84
2023-04-20T21:22:05.949Z,99077.41
2023-04-20T21:24:34.584Z,99077.41
2023-04-20T21:27:03.455Z,99078.34
2023-04-20T21:29:33.490Z,99074.16
2023-04-20T21:32:02.223Z,99074.94
2023-04-20T21:34:31.087Z,99078.34
2023-04-20T21:37:05.296Z,99072.28
2023-04-20T21:39:34.053Z,99075.78
2023-04-20T21:42:03.313Z,99067.19
2023-04-20T21:44:33.519Z,99074.94
2023-04-20T21:47:02.752Z,99073.41
2023-04-20T21:49:31.913Z,99055.78
2023-04-20T21:52:00.615Z,99053.31
2023-04-20T21:54:29.280Z,99048.31
2023-04-20T21:56:58.482Z,99046.56
2023-04-20T21:59:27.129Z,99050.03
2023-04-20T22:01:57.445Z,99051.69
2023-04-20T22:04:27.207Z,99048.22
2023-04-20T22:06:56.484Z,99048.22
2023-04-20T22:09:25.891Z,99049.84
2023-04-20T22:11:54.792Z,99046.47
2023-04-20T22:14:26.537Z,99040.66
2023-04-20T22:16:56.634Z,99039.94
2023-04-20T22:19:25.320Z,99030.66
2023-04-20T22:21:54.572Z,99035.97
2023-04-20T22:24:23.253Z,99031.09
2023-04-20T22:26:51.910Z,99031.09
2023-04-20T22:29:20.559Z,99036.41
2023-04-20T22:31:49.272Z,99040.06
2023-04-20T22:34:19.266Z,99040.38
2023-04-20T22:36:47.953Z,99050.69
2023-04-20T22:41:45.181Z,99037.41
2023-04-20T22:44:13.810Z,99042.50
2023-04-20T22:46:42.517Z,99034.16
2023-04-20T22:49:11.139Z,99037.41
2023-04-20T22:51:41.616Z,99031.28
2023-04-20T22:54:10.222Z,99032.81
2023-04-20T22:56:39.072Z,99028.44
2023-04-20T22:59:07.704Z,99025.78
2023-04-20T23:01:36.353Z,99033.34
2023-04-20T23:04:05.188Z,99024.78
2023-04-20T23:06:34.525Z,99022.22
2023-04-20T23:09:07.268Z,99034.97
2023-04-20T23:11:38.830Z,99035.03
2023-04-20T23:14:07.643Z,99047.00
2023-04-20T23:16:38.396Z,99038.66
2023-04-20T23:19:07.019Z,99037.13
2023-04-20T23:21:35.636Z,99037.22
2023-04-20T23:24:05.938Z,99045.06
2023-04-20T23:26:34.615Z,99049.34
2023-04-20T23:29:03.287Z,99052.81
2023-04-20T23:31:31.998Z,99047.03
2023-04-20T23:34:00.688Z,99052.13
2023-04-20T23:36:29.278Z,99052.94
2023-04-20T23:38:58.716Z,99053.03
2023-04-20T23:41:28.782Z,99042.09
2023-04-20T23:43:57.416Z,99047.31
2023-04-20T23:46:26.062Z,99045.66
2023-04-20T23:48:55.602Z,99045.66
2023-04-20T23:51:24.195Z,99037.31
2023-04-20T23:53:52.832Z,99038.22
2023-04-20T23:56:21.662Z,99040.06
2023-04-20T23:58:52.101Z,99028.22
